createdAt,value
2022-08-16T00:00:03.837Z,1007.56
2022-08-16T00:05:02.223Z,1007.57
2022-08-16T00:10:02.865Z,1007.57
2022-08-16T00:15:02.551Z,1007.43
2022-08-16T00:20:02.309Z,1007.41
2022-08-16T00:25:03.014Z,1007.47
2022-08-16T00:30:09.100Z,1007.49
2022-08-16T00:35:02.770Z,1007.48
2022-08-16T00:40:02.961Z,1007.43
2022-08-16T00:45:06.605Z,1007.44
2022-08-16T00:50:03.211Z,1007.51
2022-08-16T00:55:12.201Z,1007.54
2022-08-16T01:00:02.977Z,1007.49
2022-08-16T01:05:12.500Z,1007.48
2022-08-16T01:10:03.197Z,1007.51
2022-08-16T01:15:02.842Z,1007.6
2022-08-16T01:20:02.345Z,1007.73
2022-08-16T01:25:03.607Z,1007.77
2022-08-16T01:30:02.663Z,1007.68
2022-08-16T01:35:03.063Z,1007.8
2022-08-16T01:40:02.236Z,1007.68
2022-08-16T01:45:02.942Z,1007.72
2022-08-16T01:50:41.438Z,1007.61
2022-08-16T01:55:04.188Z,1007.62
2022-08-16T02:00:02.895Z,1007.64
2022-08-16T02:05:02.938Z,1007.73
2022-08-16T02:10:03.551Z,1007.77
2022-08-16T02:15:02.915Z,1007.71
2022-08-16T02:20:12.856Z,1007.66
2022-08-16T02:25:03.588Z,1007.76
2022-08-16T02:30:06.327Z,1007.74
2022-08-16T02:35:02.951Z,1007.77
2022-08-16T02:40:03.468Z,1007.74
2022-08-16T02:45:05.746Z,1007.73
2022-08-16T02:51:11.940Z,1007.8
2022-08-16T02:55:04.276Z,1007.7
2022-08-16T03:00:37.687Z,1007.75
2022-08-16T03:05:02.905Z,1007.72
2022-08-16T03:10:02.771Z,1007.65
2022-08-16T03:15:03.180Z,1007.72
2022-08-16T03:20:03.613Z,1007.71
2022-08-16T03:25:03.152Z,1007.69
2022-08-16T03:30:18.329Z,1007.76
2022-08-16T03:35:03.073Z,1007.63
2022-08-16T03:40:03.983Z,1007.69
2022-08-16T03:45:05.142Z,1007.79
2022-08-16T03:50:26.724Z,1007.88
2022-08-16T03:55:03.428Z,1007.83
2022-08-16T04:00:05.686Z,1007.95
2022-08-16T04:05:03.942Z,1007.91
2022-08-16T04:10:35.710Z,1007.98
2022-08-16T04:15:07.870Z,1008.03
2022-08-16T04:20:37.096Z,1008.08
2022-08-16T04:25:02.541Z,1008.13
2022-08-16T04:30:03.727Z,1008.13
2022-08-16T04:35:07.751Z,1008.22
2022-08-16T04:40:05.540Z,1008.26
2022-08-16T04:45:02.982Z,1008.38
2022-08-16T04:50:02.525Z,1008.41
2022-08-16T04:55:04.393Z,1008.39
2022-08-16T05:00:31.572Z,1008.37
2022-08-16T05:05:02.528Z,1008.42
2022-08-16T05:10:02.311Z,1008.41
2022-08-16T05:15:03.607Z,1008.48
2022-08-16T05:20:02.279Z,1008.4
2022-08-16T05:25:08.719Z,1008.5
2022-08-16T05:30:38.733Z,1008.62
2022-08-16T05:35:02.811Z,1008.69
2022-08-16T05:40:07.081Z,1008.72
2022-08-16T05:45:07.460Z,1008.74
2022-08-16T05:50:03.133Z,1008.81
2022-08-16T05:55:04.678Z,1008.94
2022-08-16T06:00:10.343Z,1008.97
2022-08-16T06:05:04.225Z,1009.01
2022-08-16T06:10:02.671Z,1009
2022-08-16T06:15:04.164Z,1009.05
2022-08-16T06:20:06.541Z,1009.21
2022-08-16T06:25:05.029Z,1009.29
2022-08-16T06:30:03.244Z,1009.31
2022-08-16T06:35:02.975Z,1009.41
2022-08-16T06:40:02.260Z,1009.43
2022-08-16T06:45:03.297Z,1009.35
2022-08-16T06:50:02.203Z,1009.39
2022-08-16T06:55:03.883Z,1009.42
2022-08-16T07:00:03.167Z,1009.39
2022-08-16T07:05:02.579Z,1009.49
2022-08-16T07:10:08.358Z,1009.55
2022-08-16T07:15:19.180Z,1009.53
2022-08-16T07:20:48.739Z,1009.58
2022-08-16T07:25:03.376Z,1009.49
2022-08-16T07:30:47.241Z,1009.49
2022-08-16T07:35:02.957Z,1009.62
2022-08-16T07:40:13.366Z,1009.55
2022-08-16T07:45:10.089Z,1009.6
2022-08-16T07:50:08.350Z,1009.62
2022-08-16T07:55:04.394Z,1009.61
2022-08-16T08:00:02.395Z,1009.64
2022-08-16T08:05:03.563Z,1009.65
2022-08-16T08:10:03.855Z,1009.72
2022-08-16T08:15:10.147Z,1009.76
2022-08-16T08:20:03.097Z,1009.79
2022-08-16T08:25:04.376Z,1009.94
2022-08-16T08:31:03.438Z,1009.86
2022-08-16T08:35:03.064Z,1009.88
2022-08-16T08:40:04.608Z,1009.82
2022-08-16T08:45:02.675Z,1009.87
2022-08-16T08:50:05.165Z,1010
2022-08-16T08:55:11.193Z,1010.05
2022-08-16T09:00:14.800Z,1009.91
2022-08-16T09:05:16.865Z,1009.92
2022-08-16T09:10:06.491Z,1009.9
2022-08-16T09:15:02.584Z,1009.82
2022-08-16T09:20:04.743Z,1009.93
2022-08-16T09:25:14.667Z,1009.87
2022-08-16T09:30:02.542Z,1009.84
2022-08-16T09:35:02.508Z,1009.81
2022-08-16T09:40:02.256Z,1009.84
2022-08-16T09:45:09.927Z,1009.87
2022-08-16T09:50:02.602Z,1009.86
2022-08-16T09:55:04.410Z,1009.85
2022-08-16T10:00:02.293Z,1009.86
2022-08-16T10:05:02.346Z,1009.73
2022-08-16T10:10:03.176Z,1009.79
2022-08-16T10:15:02.724Z,1009.81
2022-08-16T10:20:05.914Z,1009.88
2022-08-16T10:25:02.620Z,1009.8
2022-08-16T10:30:06.673Z,1009.73
2022-08-16T10:35:02.332Z,1009.73
2022-08-16T10:40:04.359Z,1009.79
2022-08-16T10:45:02.517Z,1009.84
2022-08-16T10:50:03.609Z,1009.78
2022-08-16T11:00:03.397Z,1009.82
2022-08-16T11:05:07.196Z,1009.82
2022-08-16T11:10:21.408Z,1009.78
2022-08-16T11:15:17.016Z,1009.81
2022-08-16T11:20:41.019Z,1009.7
2022-08-16T11:26:01.477Z,1009.76
2022-08-16T11:30:12.146Z,1009.78
2022-08-16T11:35:17.299Z,1009.8
2022-08-16T11:40:02.682Z,1009.81
2022-08-16T11:45:06.627Z,1009.9
2022-08-16T11:50:02.990Z,1009.91
2022-08-16T11:55:03.622Z,1009.89
2022-08-16T12:00:03.819Z,1009.89
2022-08-16T12:05:02.951Z,1009.8
2022-08-16T12:10:03.392Z,1009.79
2022-08-16T12:15:02.985Z,1009.85
2022-08-16T12:20:14.035Z,1009.72
2022-08-16T12:25:05.035Z,1009.77
2022-08-16T12:30:21.429Z,1009.78
2022-08-16T12:35:04.145Z,1009.74
2022-08-16T12:40:03.037Z,1009.7
2022-08-16T12:45:03.406Z,1009.69
2022-08-16T12:50:05.039Z,1009.67
2022-08-16T12:55:04.065Z,1009.73
2022-08-16T13:00:02.726Z,1009.74
2022-08-16T13:05:02.892Z,1009.62
2022-08-16T13:10:04.604Z,1009.71
2022-08-16T13:15:02.983Z,1009.59
2022-08-16T13:20:08.848Z,1009.63
2022-08-16T13:25:02.612Z,1009.7
2022-08-16T13:30:02.480Z,1009.73
2022-08-16T13:35:04.721Z,1009.67
2022-08-16T13:40:02.776Z,1009.63
2022-08-16T13:45:02.317Z,1009.62
2022-08-16T13:50:02.974Z,1009.63
2022-08-16T13:55:18.520Z,1009.56
2022-08-16T14:00:05.761Z,1009.56
2022-08-16T14:05:04.949Z,1009.6
2022-08-16T14:10:03.024Z,1009.57
2022-08-16T14:15:02.758Z,1009.58
2022-08-16T14:20:02.283Z,1009.54
2022-08-16T14:25:03.408Z,1009.57
2022-08-16T14:30:03.531Z,1009.59
2022-08-16T14:35:02.858Z,1009.53
2022-08-16T14:40:03.130Z,1009.38
2022-08-16T14:45:03.620Z,1009.26
2022-08-16T14:50:02.629Z,1009.3
2022-08-16T14:55:03.350Z,1009.3
2022-08-16T15:00:07.841Z,1009.26
2022-08-16T15:05:03.597Z,1009.29
2022-08-16T15:10:03.649Z,1009.24
2022-08-16T15:15:16.978Z,1009.27
2022-08-16T15:20:05.013Z,1009.25
2022-08-16T15:25:02.983Z,1009.34
2022-08-16T15:31:06.433Z,1009.32
2022-08-16T15:35:05.099Z,1009.3
2022-08-16T15:40:03.605Z,1009.24
2022-08-16T15:45:03.119Z,1009.14
2022-08-16T15:50:04.568Z,1009.23
2022-08-16T15:55:35.699Z,1009.24
2022-08-16T16:00:05.038Z,1009.28
2022-08-16T16:05:02.515Z,1009.16
2022-08-16T16:10:03.096Z,1009.29
2022-08-16T16:15:02.346Z,1009.2
2022-08-16T16:20:03.000Z,1009.24
2022-08-16T16:25:02.635Z,1009.22
2022-08-16T16:30:02.324Z,1009.17
2022-08-16T16:35:02.869Z,1009.23
2022-08-16T16:40:02.636Z,1009.18
2022-08-16T16:45:03.034Z,1009.22
2022-08-16T16:50:02.991Z,1009.1
2022-08-16T16:55:04.623Z,1009.18
2022-08-16T17:00:02.326Z,1009.32
2022-08-16T17:05:02.917Z,1009.3
2022-08-16T17:10:02.587Z,1009.38
2022-08-16T17:15:02.261Z,1009.41
2022-08-16T17:20:02.890Z,1009.41
2022-08-16T17:25:02.531Z,1009.28
2022-08-16T17:30:03.219Z,1009.33
2022-08-16T17:35:05.991Z,1009.37
2022-08-16T17:40:03.876Z,1009.4
2022-08-16T17:45:02.741Z,1009.44
2022-08-16T17:50:03.013Z,1009.46
2022-08-16T17:55:04.007Z,1009.57
2022-08-16T18:00:02.646Z,1009.53
2022-08-16T18:05:02.644Z,1009.54
2022-08-16T18:10:05.333Z,1009.59
2022-08-16T18:15:02.761Z,1009.64
2022-08-16T18:20:02.912Z,1009.65
2022-08-16T18:25:03.141Z,1009.69
2022-08-16T18:30:02.910Z,1009.69
2022-08-16T18:35:02.726Z,1009.74
2022-08-16T18:40:03.665Z,1009.8
2022-08-16T18:45:02.605Z,1009.75
2022-08-16T18:50:03.191Z,1009.91
2022-08-16T18:55:18.234Z,1009.99
2022-08-16T19:00:02.519Z,1009.95
2022-08-16T19:05:03.538Z,1009.97
2022-08-16T19:10:02.859Z,1010
2022-08-16T19:15:05.530Z,1009.98
2022-08-16T19:20:11.587Z,1010.05
2022-08-16T19:25:02.829Z,1010.17
2022-08-16T19:30:03.634Z,1010.23
2022-08-16T19:35:02.250Z,1010.32
2022-08-16T19:40:02.949Z,1010.26
2022-08-16T19:45:03.307Z,1010.32
2022-08-16T19:50:02.314Z,1010.36
2022-08-16T19:55:04.007Z,1010.41
2022-08-16T20:00:02.544Z,1010.4
2022-08-16T20:05:03.074Z,1010.39
2022-08-16T20:10:02.757Z,1010.51
2022-08-16T20:15:02.544Z,1010.54
2022-08-16T20:20:03.083Z,1010.56
2022-08-16T20:30:04.880Z,1010.64
2022-08-16T20:35:02.708Z,1010.53
2022-08-16T20:40:18.344Z,1010.62
2022-08-16T20:45:02.555Z,1010.58
2022-08-16T20:50:03.810Z,1010.56
2022-08-16T20:55:03.983Z,1010.57
2022-08-16T21:00:02.312Z,1010.59
2022-08-16T21:05:02.922Z,1010.56
2022-08-16T21:10:02.585Z,1010.54
2022-08-16T21:15:03.119Z,1010.58
2022-08-16T21:20:02.856Z,1010.71
2022-08-16T21:25:02.512Z,1010.66
2022-08-16T21:30:03.186Z,1010.65
2022-08-16T21:35:02.616Z,1010.63
2022-08-16T21:40:02.376Z,1010.69
2022-08-16T21:45:02.339Z,1010.65
2022-08-16T21:50:02.942Z,1010.8
2022-08-16T21:55:04.481Z,1010.91
2022-08-16T22:00:02.436Z,1010.71
2022-08-16T22:05:03.450Z,1010.78
2022-08-16T22:10:05.984Z,1010.81
2022-08-16T22:15:02.424Z,1010.85
2022-08-16T22:20:03.181Z,1010.91
2022-08-16T22:25:02.421Z,1010.95
2022-08-16T22:30:03.135Z,1010.93
2022-08-16T22:35:10.928Z,1010.95
2022-08-16T22:40:03.146Z,1011.1
2022-08-16T22:45:02.578Z,1011.02
2022-08-16T22:50:02.365Z,1011.05
2022-08-16T22:55:04.536Z,1011.05
2022-08-16T23:00:02.671Z,1011.04
2022-08-16T23:05:02.745Z,1011
2022-08-16T23:10:02.967Z,1011.01
2022-08-16T23:15:02.427Z,1011.03
2022-08-16T23:20:02.809Z,1011.09
2022-08-16T23:25:03.428Z,1011.01
2022-08-16T23:30:02.955Z,1011.04
2022-08-16T23:35:03.162Z,1010.99
2022-08-16T23:40:03.081Z,1010.93
2022-08-16T23:45:02.577Z,1010.94
2022-08-16T23:50:04.821Z,1011.03
2022-08-16T23:55:04.070Z,1010.95
